Time;durP1;ratioP1;P1;durP2;ratioP2;P2;SDS_P1;SDS_P2;PMS_P1;PMS_P2;Temp;Humidity;BMP_temperature;BMP_pressure;BME280_temperature;BME280_humidity;BME280_pressure;Samples;Min_cycle;Max_cycle;Signal;HPM_P1;HPM_P2
2023/03/21 00:01:41;;;;;;;;;;;;;;;;;;10370809;28;988;-71
2023/03/21 00:06:37;;;;;;;;;;;;;;;;;;10371409;28;969;-71
2023/03/21 00:11:33;;;;;;;;;;;;;;;;;;10371129;28;782;-71
2023/03/21 00:16:29;;;;;;;;;;;;;;;;;;10370244;28;1957;-71
2023/03/21 00:21:31;;;;;;;;;;;;;;;;;;10370147;28;826;-71
2023/03/21 00:26:26;;;;;;;;;;;;;;;;;;10370029;28;819;-71
2023/03/21 00:31:22;;;;;;;;;;;;;;;;;;10369703;28;814;-71
2023/03/21 00:36:18;;;;;;;;;;;;;;;;;;10369419;28;1882;-71
2023/03/21 00:41:14;;;;;;;;;;;;;;;;;;10369555;28;1151;-71
2023/03/21 00:46:10;;;;;;;;;;;;;;;;;;10368557;28;906;-71
2023/03/21 00:51:06;;;;;;;;;;;;;;;;;;10369528;28;854;-71
2023/03/21 00:56:02;;;;;;;;;;;;;;;;;;10368673;28;1902;-71
2023/03/21 01:00:57;;;;;;;;;;;;;;;;;;10367644;28;866;-71
2023/03/21 01:06:05;;;;;;;;;;;;;;;;;;10368938;28;791;-71
2023/03/21 01:11:02;;;;;;;;;;;;;;;;;;10368838;28;811;-71
2023/03/21 01:15:58;;;;;;;;;;;;;;;;;;10367342;28;1952;-71
2023/03/21 01:20:55;;;;;;;;;;;;;;;;;;10367749;28;991;-71
2023/03/21 01:25:50;;;;;;;;;;;;;;;;;;10367578;28;916;-71
2023/03/21 01:30:46;;;;;;;;;;;;;;;;;;10368692;28;867;-71
2023/03/21 01:35:42;;;;;;;;;;;;;;;;;;10367175;28;1940;-71
2023/03/21 01:40:38;;;;;;;;;;;;;;;;;;10367434;28;1258;-71
2023/03/21 01:45:34;;;;;;;;;;;;;;;;;;10367042;28;883;-71
2023/03/21 01:50:30;;;;;;;;;;;;;;;;;;10367461;28;778;-71
2023/03/21 01:55:26;;;;;;;;;;;;;;;;;;10366984;28;1980;-71
2023/03/21 02:00:22;;;;;;;;;;;;;;;;;;10366590;28;925;-71
2023/03/21 02:05:18;;;;;;;;;;;;;;;;;;10366455;28;842;-71
2023/03/21 02:10:14;;;;;;;;;;;;;;;;;;10366278;28;967;-71
2023/03/21 02:15:09;;;;;;;;;;;;;;;;;;10365467;28;1886;-71
2023/03/21 02:20:07;;;;;;;;;;;;;;;;;;10366352;28;875;-71
2023/03/21 02:25:03;;;;;;;;;;;;;;;;;;10365483;28;992;-71
2023/03/21 02:29:59;;;;;;;;;;;;;;;;;;10366731;28;773;-71
2023/03/21 02:34:55;;;;;;;;;;;;;;;;;;10365825;28;1890;-71
2023/03/21 02:39:51;;;;;;;;;;;;;;;;;;10366007;28;1515;-71
2023/03/21 02:44:46;;;;;;;;;;;;;;;;;;10365238;28;942;-72
2023/03/21 02:49:42;;;;;;;;;;;;;;;;;;10365601;28;963;-71
2023/03/21 02:54:38;;;;;;;;;;;;;;;;;;10365452;28;1963;-71
2023/03/21 02:59:34;;;;;;;;;;;;;;;;;;10366028;28;895;-71
2023/03/21 03:04:30;;;;;;;;;;;;;;;;;;10365939;28;937;-71
2023/03/21 03:09:26;;;;;;;;;;;;;;;;;;10365930;28;899;-71
2023/03/21 03:14:22;;;;;;;;;;;;;;;;;;10365675;28;1945;-71
2023/03/21 03:19:18;;;;;;;;;;;;;;;;;;10365604;28;826;-71
2023/03/21 03:24:15;;;;;;;;;;;;;;;;;;10365439;28;896;-71
2023/03/21 03:29:11;;;;;;;;;;;;;;;;;;10373140;28;952;-71
2023/03/21 03:34:07;;;;;;;;;;;;;;;;;;10371977;28;771;-71
2023/03/21 03:39:03;;;;;;;;;;;;;;;;;;10371988;28;1644;-71
2023/03/21 03:43:59;;;;;;;;;;;;;;;;;;10371707;28;881;-71
2023/03/21 03:48:55;;;;;;;;;;;;;;;;;;10372021;28;877;-71
2023/03/21 03:53:51;;;;;;;;;;;;;;;;;;10371269;28;827;-71
2023/03/21 03:58:47;;;;;;;;;;;;;;;;;;10370850;28;1980;-71
2023/03/21 04:03:43;;;;;;;;;;;;;;;;;;10370893;28;798;-71
2023/03/21 04:08:41;;;;;;;;;;;;;;;;;;10370607;28;905;-71
2023/03/21 04:13:37;;;;;;;;;;;;;;;;;;10370096;28;1521;-71
2023/03/21 04:18:33;;;;;;;;;;;;;;;;;;10370770;28;1956;-71
2023/03/21 04:23:29;;;;;;;;;;;;;;;;;;10370812;28;905;-71
2023/03/21 04:28:24;;;;;;;;;;;;;;;;;;10370456;28;889;-71
2023/03/21 04:33:20;;;;;;;;;;;;;;;;;;10369692;28;981;-71
2023/03/21 04:38:16;;;;;;;;;;;;;;;;;;10369365;28;1894;-71
2023/03/21 04:43:12;;;;;;;;;;;;;;;;;;10368652;28;1449;-71
2023/03/21 04:48:08;;;;;;;;;;;;;;;;;;10368742;28;922;-71
2023/03/21 04:53:04;;;;;;;;;;;;;;;;;;10369712;28;886;-71
2023/03/21 04:58:00;;;;;;;;;;;;;;;;;;10368543;28;1973;-71
2023/03/21 05:02:57;;;;;;;;;;;;;;;;;;10369244;28;795;-71
2023/03/21 05:07:53;;;;;;;;;;;;;;;;;;10369152;28;812;-71
2023/03/21 05:12:49;;;;;;;;;;;;;;;;;;10368132;28;838;-71
2023/03/21 05:17:47;;;;;;;;;;;;;;;;;;10368965;28;1941;-71
2023/03/21 05:22:44;;;;;;;;;;;;;;;;;;10367763;28;791;-71
2023/03/21 05:27:44;;;;;;;;;;;;;;;;;;10367093;28;1255;-70
2023/03/21 05:32:40;;;;;;;;;;;;;;;;;;10367416;28;901;-71
2023/03/21 05:37:37;;;;;;;;;;;;;;;;;;10367820;28;1943;-73
2023/03/21 05:42:33;;;;;;;;;;;;;;;;;;10367846;28;1123;-74
2023/03/21 05:47:29;;;;;;;;;;;;;;;;;;10366510;28;779;-72
2023/03/21 05:52:25;;;;;;;;;;;;;;;;;;10366421;28;1532;-73
2023/03/21 05:57:21;;;;;;;;;;;;;;;;;;10367430;28;1910;-72
2023/03/21 06:02:17;;;;;;;;;;;;;;;;;;10367237;28;763;-72
2023/03/21 06:07:13;;;;;;;;;;;;;;;;;;10367018;28;784;-75
2023/03/21 06:12:09;;;;;;;;;;;;;;;;;;10366426;28;867;-72
2023/03/21 06:17:05;;;;;;;;;;;;;;;;;;10366179;28;1886;-72
2023/03/21 06:22:01;;;;;;;;;;;;;;;;;;10366702;28;955;-72
2023/03/21 06:26:56;;;;;;;;;;;;;;;;;;10366080;28;901;-72
2023/03/21 06:31:52;;;;;;;;;;;;;;;;;;10366053;28;922;-72
2023/03/21 06:36:50;;;;;;;;;;;;;;;;;;10366056;28;1878;-73
2023/03/21 06:41:46;;;;;;;;;;;;;;;;;;10365025;28;1321;-71
2023/03/21 06:46:42;;;;;;;;;;;;;;;;;;10365739;28;909;-72
2023/03/21 06:51:38;;;;;;;;;;;;;;;;;;10365562;28;990;-72
2023/03/21 06:56:34;;;;;;;;;;;;;;;;;;10365448;28;1981;-71
2023/03/21 07:01:30;;;;;;;;;;;;;;;;;;10369629;28;824;-72
2023/03/21 07:06:26;;;;;;;;;;;;;;;;;;10373789;28;786;-72
2023/03/21 07:11:21;;;;;;;;;;;;;;;;;;10372948;28;769;-70
2023/03/21 07:16:17;;;;;;;;;;;;;;;;;;10372070;28;1945;-72
2023/03/21 07:21:13;;;;;;;;;;;;;;;;;;10372804;28;827;-70
2023/03/21 07:26:09;;;;;;;;;;;;;;;;;;10373125;28;795;-72
2023/03/21 07:31:05;;;;;;;;;;;;;;;;;;10372972;28;757;-72
2023/03/21 07:36:01;;;;;;;;;;;;;;;;;;10372609;28;1886;-72
2023/03/21 07:40:57;;;;;;;;;;;;;;;;;;10372766;28;1390;-74
2023/03/21 07:45:53;;;;;;;;;;;;;;;;;;10371659;28;938;-71
2023/03/21 07:50:49;;;;;;;;;;;;;;;;;;10371478;28;795;-73
2023/03/21 07:55:45;;;;;;;;;;;;;;;;;;10371792;28;1971;-73
2023/03/21 08:00:41;;;;;;;;;;;;;;;;;;10371683;28;791;-73
2023/03/21 08:05:37;;;;;;;;;;;;;;;;;;10370732;28;1003;-74
2023/03/21 08:10:33;;;;;;;;;;;;;;;;;;10370658;28;818;-74
2023/03/21 08:15:29;;;;;;;;;;;;;;;;;;10370501;28;1893;-74
2023/03/21 08:20:24;;;;;;;;;;;;;;;;;;10370265;28;989;-74
2023/03/21 08:25:20;;;;;;;;;;;;;;;;;;10370976;28;781;-73
2023/03/21 08:30:16;;;;;;;;;;;;;;;;;;10369807;28;869;-75
2023/03/21 08:35:12;;;;;;;;;;;;;;;;;;10369600;28;1943;-75
2023/03/21 08:40:10;;;;;;;;;;;;;;;;;;10369653;28;1294;-75
2023/03/21 08:45:06;;;;;;;;;;;;;;;;;;10369335;28;1376;-76
2023/03/21 08:50:02;;;;;;;;;;;;;;;;;;10369096;28;776;-76
2023/03/21 08:54:58;;;;;;;;;;;;;;;;;;10369591;28;1909;-72
2023/03/21 08:59:54;;;;;;;;;;;;;;;;;;10369334;28;810;-72
2023/03/21 09:04:53;;;;;;;;;;;;;;;;;;10368532;28;795;-75
2023/03/21 09:09:51;;;;;;;;;;;;;;;;;;10368273;28;925;-74
2023/03/21 09:14:48;;;;;;;;;;;;;;;;;;10368791;28;1894;-75
2023/03/21 09:19:46;;;;;;;;;;;;;;;;;;10368580;28;869;-75
2023/03/21 09:24:42;;;;;;;;;;;;;;;;;;10367501;28;1096;-75
2023/03/21 09:29:38;;;;;;;;;;;;;;;;;;10368217;28;902;-75
2023/03/21 09:34:35;;;;;;;;;;;;;;;;;;10367254;28;1890;-74
2023/03/21 09:39:31;;;;;;;;;;;;;;;;;;10367304;28;1263;-75
2023/03/21 09:44:27;;;;;;;;;;;;;;;;;;10367714;28;855;-74
2023/03/21 09:49:24;;;;;;;;;;;;;;;;;;10367456;28;901;-74
2023/03/21 09:54:20;;;;;;;;;;;;;;;;;;10366828;28;771;-73
2023/03/21 09:59:16;;;;;;;;;;;;;;;;;;10366109;28;855;-74
2023/03/21 10:04:12;;;;;;;;;;;;;;;;;;10365826;28;995;-75
2023/03/21 10:09:08;;;;;;;;;;;;;;;;;;10366438;28;882;-72
2023/03/21 10:14:03;;;;;;;;;;;;;;;;;;10366508;28;1026;-75
2023/03/21 10:18:59;;;;;;;;;;;;;;;;;;10366161;28;1931;-75
2023/03/21 10:23:55;;;;;;;;;;;;;;;;;;10366209;28;792;-75
2023/03/21 10:28:51;;;;;;;;;;;;;;;;;;10366722;28;885;-75
2023/03/21 10:33:47;;;;;;;;;;;;;;;;;;10365785;28;914;-74
2023/03/21 10:38:43;;;;;;;;;;;;;;;;;;10374388;28;1933;-75
2023/03/21 10:43:39;;;;;;;;;;;;;;;;;;10374188;28;831;-74
2023/03/21 10:48:35;;;;;;;;;;;;;;;;;;10373876;28;799;-74
2023/03/21 10:53:31;;;;;;;;;;;;;;;;;;10373737;28;865;-75
2023/03/21 10:58:27;;;;;;;;;;;;;;;;;;10374052;28;1905;-75
2023/03/21 11:03:23;;;;;;;;;;;;;;;;;;10373410;28;874;-75
2023/03/21 11:08:19;;;;;;;;;;;;;;;;;;10373207;28;843;-74
2023/03/21 11:13:15;;;;;;;;;;;;;;;;;;10373022;28;815;-74
2023/03/21 11:18:11;;;;;;;;;;;;;;;;;;10373236;28;1941;-74
2023/03/21 11:23:06;;;;;;;;;;;;;;;;;;10372022;28;941;-74
2023/03/21 11:28:02;;;;;;;;;;;;;;;;;;10372419;28;777;-74
2023/03/21 11:32:58;;;;;;;;;;;;;;;;;;10372791;28;838;-74
2023/03/21 11:37:54;;;;;;;;;;;;;;;;;;10372833;28;1878;-74
2023/03/21 11:42:50;;;;;;;;;;;;;;;;;;10371758;28;1256;-75
2023/03/21 11:47:46;;;;;;;;;;;;;;;;;;10371550;28;858;-74
2023/03/21 11:52:42;;;;;;;;;;;;;;;;;;10372046;28;809;-75
2023/03/21 11:57:38;;;;;;;;;;;;;;;;;;10371251;28;1906;-74
2023/03/21 12:02:35;;;;;;;;;;;;;;;;;;10371056;28;876;-75
2023/03/21 12:07:30;;;;;;;;;;;;;;;;;;10370802;28;979;-74
2023/03/21 12:12:26;;;;;;;;;;;;;;;;;;10370663;28;1001;-74
2023/03/21 12:17:22;;;;;;;;;;;;;;;;;;10371001;28;1889;-76
2023/03/21 12:22:18;;;;;;;;;;;;;;;;;;10370886;28;902;-73
2023/03/21 12:27:14;;;;;;;;;;;;;;;;;;10370920;28;869;-73
2023/03/21 12:32:10;;;;;;;;;;;;;;;;;;10370470;28;837;-73
2023/03/21 12:37:06;;;;;;;;;;;;;;;;;;10369567;28;1886;-73
2023/03/21 12:42:02;;;;;;;;;;;;;;;;;;10370115;28;1112;-73
2023/03/21 12:46:57;;;;;;;;;;;;;;;;;;10370105;28;863;-73
2023/03/21 12:51:53;;;;;;;;;;;;;;;;;;10369986;28;889;-73
2023/03/21 12:56:49;;;;;;;;;;;;;;;;;;10368473;28;1910;-73
2023/03/21 13:01:45;;;;;;;;;;;;;;;;;;10368680;28;803;-73
2023/03/21 13:06:41;;;;;;;;;;;;;;;;;;10369175;28;860;-70
2023/03/21 13:11:37;;;;;;;;;;;;;;;;;;10368564;28;929;-73
2023/03/21 13:16:33;;;;;;;;;;;;;;;;;;10369203;28;1951;-75
2023/03/21 13:21:29;;;;;;;;;;;;;;;;;;10368626;28;878;-73
2023/03/21 13:26:25;;;;;;;;;;;;;;;;;;10367892;28;940;-72
2023/03/21 13:31:21;;;;;;;;;;;;;;;;;;10367646;28;987;-73
2023/03/21 13:36:16;;;;;;;;;;;;;;;;;;10367919;28;1959;-78
2023/03/21 13:41:12;;;;;;;;;;;;;;;;;;10366984;28;1144;-78
2023/03/21 13:46:08;;;;;;;;;;;;;;;;;;10367131;28;841;-78
2023/03/21 13:51:05;;;;;;;;;;;;;;;;;;10367467;28;859;-73
2023/03/21 13:56:01;;;;;;;;;;;;;;;;;;10365847;28;1906;-74
2023/03/21 14:00:56;;;;;;;;;;;;;;;;;;10367034;28;931;-75
2023/03/21 14:05:52;;;;;;;;;;;;;;;;;;10366310;28;874;-74
2023/03/21 14:10:48;;;;;;;;;;;;;;;;;;10365328;28;811;-73
2023/03/21 14:15:44;;;;;;;;;;;;;;;;;;10365932;28;1935;-74
2023/03/21 14:20:41;;;;;;;;;;;;;;;;;;10365441;28;934;-73
2023/03/21 14:25:37;;;;;;;;;;;;;;;;;;10365789;28;916;-74
2023/03/21 14:30:33;;;;;;;;;;;;;;;;;;10365860;28;839;-73
2023/03/21 14:35:30;;;;;;;;;;;;;;;;;;10365642;28;1889;-73
2023/03/21 14:40:26;;;;;;;;;;;;;;;;;;10365723;28;1266;-73
2023/03/21 14:45:22;;;;;;;;;;;;;;;;;;10365782;28;1054;-73
2023/03/21 14:50:17;;;;;;;;;;;;;;;;;;10365559;28;792;-74
2023/03/21 14:55:13;;;;;;;;;;;;;;;;;;10365921;28;1918;-74
2023/03/21 15:00:13;;;;;;;;;;;;;;;;;;10366079;28;802;-73
2023/03/21 15:05:09;;;;;;;;;;;;;;;;;;10365983;28;822;-73
2023/03/21 15:10:05;;;;;;;;;;;;;;;;;;10365244;28;1108;-73
2023/03/21 15:15:02;;;;;;;;;;;;;;;;;;10365180;28;1889;-73
2023/03/21 15:19:57;;;;;;;;;;;;;;;;;;10364650;28;861;-73
2023/03/21 15:24:53;;;;;;;;;;;;;;;;;;10372592;28;815;-73
2023/03/21 15:29:49;;;;;;;;;;;;;;;;;;10372306;28;976;-74
2023/03/21 15:34:45;;;;;;;;;;;;;;;;;;10372017;28;1941;-73
2023/03/21 15:39:41;;;;;;;;;;;;;;;;;;10372280;28;1709;-73
2023/03/21 15:44:37;;;;;;;;;;;;;;;;;;10371994;28;847;-73
2023/03/21 15:49:33;;;;;;;;;;;;;;;;;;10371582;28;898;-73
2023/03/21 15:54:29;;;;;;;;;;;;;;;;;;10372066;28;862;-74
2023/03/21 15:59:25;;;;;;;;;;;;;;;;;;10371736;28;1917;-73
2023/03/21 16:04:23;;;;;;;;;;;;;;;;;;10371083;28;865;-73
2023/03/21 16:09:25;;;;;;;;;;;;;;;;;;10371438;28;834;-74
2023/03/21 16:14:21;;;;;;;;;;;;;;;;;;10370404;28;923;-73
2023/03/21 16:19:17;;;;;;;;;;;;;;;;;;10371076;28;1890;-73
2023/03/21 16:24:13;;;;;;;;;;;;;;;;;;10370275;28;776;-73
2023/03/21 16:29:08;;;;;;;;;;;;;;;;;;10370656;28;818;-74
2023/03/21 16:34:05;;;;;;;;;;;;;;;;;;10368971;28;807;-73
2023/03/21 16:39:01;;;;;;;;;;;;;;;;;;10369391;28;1957;-73
2023/03/21 16:43:57;;;;;;;;;;;;;;;;;;10369874;28;836;-80
2023/03/21 16:48:53;;;;;;;;;;;;;;;;;;10369318;28;756;-81
2023/03/21 16:53:50;;;;;;;;;;;;;;;;;;10369128;28;780;-76
2023/03/21 16:58:46;;;;;;;;;;;;;;;;;;10368904;28;1918;-76
2023/03/21 17:03:42;;;;;;;;;;;;;;;;;;10368717;28;840;-76
2023/03/21 17:08:37;;;;;;;;;;;;;;;;;;10369735;28;873;-76
2023/03/21 17:13:33;;;;;;;;;;;;;;;;;;10368939;28;903;-75
2023/03/21 17:18:29;;;;;;;;;;;;;;;;;;10367492;28;1951;-75
2023/03/21 17:23:25;;;;;;;;;;;;;;;;;;10368193;28;1056;-76
2023/03/21 17:28:21;;;;;;;;;;;;;;;;;;10367764;28;791;-75
2023/03/21 17:33:17;;;;;;;;;;;;;;;;;;10368233;28;940;-75
2023/03/21 17:38:13;;;;;;;;;;;;;;;;;;10367992;28;1897;-76
2023/03/21 17:43:09;;;;;;;;;;;;;;;;;;10368096;28;1131;-75
2023/03/21 17:48:05;;;;;;;;;;;;;;;;;;10367701;28;783;-76
2023/03/21 17:53:01;;;;;;;;;;;;;;;;;;10367029;28;753;-76
2023/03/21 17:57:57;;;;;;;;;;;;;;;;;;10366741;28;1917;-76
2023/03/21 18:02:53;;;;;;;;;;;;;;;;;;10366820;28;884;-76
2023/03/21 18:07:50;;;;;;;;;;;;;;;;;;10365995;28;866;-76
2023/03/21 18:12:46;;;;;;;;;;;;;;;;;;10366446;28;985;-75
2023/03/21 18:17:42;;;;;;;;;;;;;;;;;;10366218;28;1885;-76
2023/03/21 18:22:38;;;;;;;;;;;;;;;;;;10366246;28;879;-76
2023/03/21 18:27:33;;;;;;;;;;;;;;;;;;10366429;28;882;-76
2023/03/21 18:32:29;;;;;;;;;;;;;;;;;;10365518;28;846;-75
2023/03/21 18:37:26;;;;;;;;;;;;;;;;;;10366456;28;1894;-75
2023/03/21 18:42:22;;;;;;;;;;;;;;;;;;10365605;28;1278;-75
2023/03/21 18:47:18;;;;;;;;;;;;;;;;;;10366410;28;934;-76
2023/03/21 18:52:14;;;;;;;;;;;;;;;;;;10365644;28;973;-75
2023/03/21 18:57:10;;;;;;;;;;;;;;;;;;10369629;28;1957;-75
2023/03/21 19:02:06;;;;;;;;;;;;;;;;;;10373483;28;898;-75
2023/03/21 19:07:03;;;;;;;;;;;;;;;;;;10372645;28;1136;-76
2023/03/21 19:12:00;;;;;;;;;;;;;;;;;;10373903;28;945;-75
2023/03/21 19:16:57;;;;;;;;;;;;;;;;;;10372804;28;1983;-75
2023/03/21 19:21:53;;;;;;;;;;;;;;;;;;10372763;28;858;-75
2023/03/21 19:26:49;;;;;;;;;;;;;;;;;;10373183;28;865;-75
2023/03/21 19:31:45;;;;;;;;;;;;;;;;;;10372414;28;790;-75
2023/03/21 19:36:41;;;;;;;;;;;;;;;;;;10371465;28;1969;-75
2023/03/21 19:41:37;;;;;;;;;;;;;;;;;;10371908;28;1343;-75
2023/03/21 19:46:33;;;;;;;;;;;;;;;;;;10371845;28;898;-75
2023/03/21 19:51:29;;;;;;;;;;;;;;;;;;10371782;28;958;-75
2023/03/21 19:56:26;;;;;;;;;;;;;;;;;;10371389;28;1905;-75
2023/03/21 20:01:22;;;;;;;;;;;;;;;;;;10371195;28;940;-75
2023/03/21 20:06:18;;;;;;;;;;;;;;;;;;10370398;28;885;-75
2023/03/21 20:11:16;;;;;;;;;;;;;;;;;;10370187;28;860;-75
2023/03/21 20:16:12;;;;;;;;;;;;;;;;;;10371385;28;1953;-75
2023/03/21 20:21:08;;;;;;;;;;;;;;;;;;10370515;28;835;-75
2023/03/21 20:26:04;;;;;;;;;;;;;;;;;;10370936;28;834;-75
2023/03/21 20:31:00;;;;;;;;;;;;;;;;;;10370734;28;897;-75
2023/03/21 20:35:58;;;;;;;;;;;;;;;;;;10369861;28;1941;-75
2023/03/21 20:40:54;;;;;;;;;;;;;;;;;;10370556;28;1115;-75
2023/03/21 20:45:50;;;;;;;;;;;;;;;;;;10370536;28;909;-75
2023/03/21 20:50:46;;;;;;;;;;;;;;;;;;10369323;28;886;-74
2023/03/21 20:55:43;;;;;;;;;;;;;;;;;;10369196;28;1910;-75
2023/03/21 21:00:38;;;;;;;;;;;;;;;;;;10368865;28;845;-74
2023/03/21 21:05:37;;;;;;;;;;;;;;;;;;10368751;28;799;-74
2023/03/21 21:10:33;;;;;;;;;;;;;;;;;;10369518;28;874;-74
2023/03/21 21:15:28;;;;;;;;;;;;;;;;;;10367697;28;1953;-74
2023/03/21 21:20:25;;;;;;;;;;;;;;;;;;10367746;28;957;-74
2023/03/21 21:25:22;;;;;;;;;;;;;;;;;;10368063;28;830;-74
2023/03/21 21:30:18;;;;;;;;;;;;;;;;;;10367800;28;881;-74
2023/03/21 21:35:14;;;;;;;;;;;;;;;;;;10368081;28;1889;-74
2023/03/21 21:40:15;;;;;;;;;;;;;;;;;;10366740;28;1270;-74
2023/03/21 21:45:11;;;;;;;;;;;;;;;;;;10367211;28;885;-74
2023/03/21 21:50:07;;;;;;;;;;;;;;;;;;10367380;28;947;-74
2023/03/21 21:55:03;;;;;;;;;;;;;;;;;;10366955;28;1976;-74
2023/03/21 22:00:00;;;;;;;;;;;;;;;;;;10366841;28;904;-74
2023/03/21 22:04:56;;;;;;;;;;;;;;;;;;10366641;28;999;-74
2023/03/21 22:09:52;;;;;;;;;;;;;;;;;;10366594;28;787;-74
2023/03/21 22:14:48;;;;;;;;;;;;;;;;;;10367311;28;1962;-74
2023/03/21 22:19:44;;;;;;;;;;;;;;;;;;10365823;28;856;-74
2023/03/21 22:24:40;;;;;;;;;;;;;;;;;;10367497;28;826;-74
2023/03/21 22:29:35;;;;;;;;;;;;;;;;;;10366191;28;826;-74
2023/03/21 22:34:31;;;;;;;;;;;;;;;;;;10374204;28;850;-74
2023/03/21 22:39:27;;;;;;;;;;;;;;;;;;10374673;28;1945;-74
2023/03/21 22:44:23;;;;;;;;;;;;;;;;;;10374917;28;967;-74
2023/03/21 22:49:19;;;;;;;;;;;;;;;;;;10374713;28;945;-74
2023/03/21 22:54:15;;;;;;;;;;;;;;;;;;10373951;28;856;-74
2023/03/21 22:59:11;;;;;;;;;;;;;;;;;;10374403;28;1917;-74
2023/03/21 23:04:07;;;;;;;;;;;;;;;;;;10373495;28;835;-74
2023/03/21 23:09:03;;;;;;;;;;;;;;;;;;10374668;28;861;-74
2023/03/21 23:13:58;;;;;;;;;;;;;;;;;;10373735;28;873;-74
2023/03/21 23:18:54;;;;;;;;;;;;;;;;;;10373480;28;1890;-74
2023/03/21 23:23:50;;;;;;;;;;;;;;;;;;10372766;28;783;-74
2023/03/21 23:28:47;;;;;;;;;;;;;;;;;;10372562;28;779;-74
2023/03/21 23:33:42;;;;;;;;;;;;;;;;;;10372335;28;892;-74
2023/03/21 23:38:38;;;;;;;;;;;;;;;;;;10372652;28;1886;-74
2023/03/21 23:43:34;;;;;;;;;;;;;;;;;;10373310;28;1079;-74
2023/03/21 23:48:30;;;;;;;;;;;;;;;;;;10371783;28;979;-74
2023/03/21 23:53:26;;;;;;;;;;;;;;;;;;10371696;28;917;-74
2023/03/21 23:58:22;;;;;;;;;;;;;;;;;;10371327;28;1905;-74
